Time;durP1;ratioP1;P1;durP2;ratioP2;P2;SDS_P1;SDS_P2;PMS_P1;PMS_P2;Temp;Humidity;BMP_temperature;BMP_pressure;BME280_temperature;BME280_humidity;BME280_pressure;Samples;Min_cycle;Max_cycle;Signal;HPM_P1;HPM_P2
2022/04/18 00:01:56;;;;;;;4.35;2.60;;;;;;;11.04;48.13;102030.00;4973682;28;98059;-34
2022/04/18 00:04:21;;;;;;;6.38;2.90;;;;;;;10.99;48.33;102021.19;4974721;28;97945;-34
2022/04/18 00:06:47;;;;;;;4.13;2.33;;;;;;;11.04;47.91;102037.25;4974925;28;96457;-34
2022/04/18 00:09:12;;;;;;;5.97;2.60;;;;;;;11.00;48.83;102031.09;4974126;28;96914;-35
2022/04/18 00:11:38;;;;;;;5.85;2.65;;;;;;;10.96;48.44;102034.88;4973116;28;100911;-34
2022/04/18 00:14:03;;;;;;;4.38;2.55;;;;;;;10.87;49.17;102028.97;4973995;28;125535;-34
2022/04/18 00:16:29;;;;;;;3.47;2.38;;;;;;;10.80;48.83;102021.13;4974546;28;96520;-34
2022/04/18 00:18:54;;;;;;;4.43;2.50;;;;;;;10.74;48.64;102012.38;4975475;28;96856;-34
2022/04/18 00:21:20;;;;;;;5.30;2.63;;;;;;;10.79;49.15;102026.59;4974630;28;97906;-34
2022/04/18 00:23:45;;;;;;;4.88;2.72;;;;;;;10.75;48.75;102022.25;4974365;28;97289;-34
2022/04/18 00:26:11;;;;;;;3.63;2.28;;;;;;;10.62;49.45;102011.06;4974366;28;96513;-34
2022/04/18 00:28:36;;;;;;;3.20;2.22;;;;;;;10.66;49.54;102022.69;4974545;28;96824;-34
2022/04/18 00:31:02;;;;;;;4.75;2.45;;;;;;;10.66;48.85;102026.25;4974246;28;97972;-34
2022/04/18 00:33:27;;;;;;;4.72;2.70;;;;;;;10.61;49.00;102015.63;4973866;28;99528;-34
2022/04/18 00:35:53;;;;;;;7.50;2.72;;;;;;;10.60;49.40;102024.69;4974684;28;96487;-34
2022/04/18 00:38:19;;;;;;;5.55;2.42;;;;;;;10.56;49.54;102025.78;4974585;28;96803;-34
2022/04/18 00:40:44;;;;;;;5.43;3.10;;;;;;;10.55;49.39;102024.00;4974991;28;101328;-34
2022/04/18 00:43:10;;;;;;;6.03;2.80;;;;;;;10.46;49.47;102018.09;4977996;28;97798;-34
2022/04/18 00:45:35;;;;;;;5.00;2.83;;;;;;;10.40;49.78;102019.25;4977843;28;96689;-35
2022/04/18 00:48:01;;;;;;;7.72;2.88;;;;;;;10.43;49.78;102019.09;4977313;28;100382;-34
2022/04/18 00:50:29;;;;;;;6.35;3.00;;;;;;;10.40;49.41;102017.41;4975465;28;100888;-34
2022/04/18 00:52:55;;;;;;;4.10;2.45;;;;;;;10.33;50.27;102010.50;4975920;28;100921;-34
2022/04/18 00:55:23;;;;;;;4.25;2.40;;;;;;;10.32;49.76;102007.84;4976261;28;96738;-34
2022/04/18 00:57:49;;;;;;;3.67;2.17;;;;;;;10.35;49.89;102015.84;4976339;28;96960;-34
2022/04/18 01:00:15;;;;;;;4.50;2.42;;;;;;;10.26;50.45;102006.25;4975632;28;101031;-35
2022/04/18 01:02:41;;;;;;;4.32;2.55;;;;;;;10.26;50.76;102005.38;4977137;28;97343;-34
2022/04/18 01:05:06;;;;;;;6.20;3.08;;;;;;;10.22;50.69;101999.19;4976499;28;117650;-34
2022/04/18 01:07:33;;;;;;;5.32;2.58;;;;;;;10.19;50.92;102011.03;4976431;28;96824;-34
2022/04/18 01:09:59;;;;;;;6.25;3.33;;;;;;;10.06;50.23;101989.94;4975359;28;101066;-34
2022/04/18 01:12:25;;;;;;;5.88;2.65;;;;;;;10.15;50.77;102011.22;4977049;28;98969;-34
2022/04/18 01:14:50;;;;;;;5.05;2.70;;;;;;;10.08;50.62;102002.47;4976004;28;117772;-34
2022/04/18 01:17:16;;;;;;;3.70;2.50;;;;;;;10.09;50.38;102003.34;4977131;28;96756;-34
2022/04/18 01:19:42;;;;;;;5.55;2.95;;;;;;;9.98;50.58;101990.25;4977313;28;97099;-34
2022/04/18 01:22:15;;;;;;;4.55;2.35;;;;;;;10.02;50.29;102000.00;4975611;28;101170;-34
2022/04/18 01:30:11;;;;;;;5.50;2.20;;;;;;;9.86;50.94;101982.63;4976932;28;96987;-34
2022/04/18 01:32:37;;;;;;;2.90;2.03;;;;;;;9.94;51.10;101999.47;4977293;28;97822;-34
2022/04/18 01:35:03;;;;;;;3.45;2.25;;;;;;;9.93;51.42;101998.56;4976204;28;117012;-34
2022/04/18 01:37:29;;;;;;;4.18;2.33;;;;;;;9.87;51.18;101992.53;4975546;28;96913;-34
2022/04/18 01:39:55;;;;;;;4.82;2.17;;;;;;;9.84;51.22;101998.91;4976205;28;97929;-34
2022/04/18 01:42:20;;;;;;;5.22;2.35;;;;;;;9.86;51.44;102005.16;4975240;28;99372;-34
2022/04/18 01:44:46;;;;;;;5.20;2.63;;;;;;;9.82;51.31;102005.34;4976732;28;96544;-34
2022/04/18 01:47:11;;;;;;;3.60;2.15;;;;;;;9.73;51.32;101988.53;4977008;28;96701;-34
2022/04/18 01:49:36;;;;;;;3.65;2.33;;;;;;;9.68;51.11;101977.03;4976634;28;97939;-34
2022/04/18 01:52:02;;;;;;;3.50;2.10;;;;;;;9.75;51.35;101997.47;4975442;28;126277;-34
2022/04/18 01:54:27;;;;;;;3.38;2.05;;;;;;;9.73;52.07;102006.59;4976702;28;96657;-34
2022/04/18 01:56:52;;;;;;;3.17;1.98;;;;;;;9.67;51.71;101996.88;4976513;28;108589;-34
2022/04/18 01:59:18;;;;;;;4.18;2.28;;;;;;;9.64;51.64;101985.31;4975873;28;116853;-34
2022/04/18 02:01:43;;;;;;;3.42;2.10;;;;;;;9.61;51.55;101974.63;4976197;28;97752;-34
2022/04/18 02:04:08;;;;;;;4.32;2.38;;;;;;;9.66;51.55;101987.00;4973982;28;118100;-34
2022/04/18 02:06:34;;;;;;;3.30;2.00;;;;;;;9.61;51.54;101986.31;4976131;28;97581;-34
2022/04/18 02:09:08;;;;;;;3.38;1.98;;;;;;;9.61;51.89;101980.91;4976110;28;98901;-34
2022/04/18 02:11:34;;;;;;;7.35;1.95;;;;;;;9.57;51.64;101980.13;4975301;28;123415;-34
2022/04/18 02:13:59;;;;;;;3.08;1.77;;;;;;;9.50;51.88;101967.78;4976573;28;96616;-34
2022/04/18 02:16:25;;;;;;;2.90;1.65;;;;;;;9.49;51.70;101976.84;4975681;28;109628;-34
2022/04/18 02:18:50;;;;;;;3.17;1.63;;;;;;;9.55;51.97;101979.31;4976147;28;97770;-34
2022/04/18 02:21:16;;;;;;;3.42;2.05;;;;;;;9.52;51.97;101983.97;4976105;28;99325;-34
2022/04/18 02:23:42;;;;;;;2.25;1.67;;;;;;;9.53;52.26;101988.44;4974879;28;96932;-34
2022/04/18 02:26:08;;;;;;;3.50;2.28;;;;;;;9.47;51.85;101977.88;4974756;28;96880;-34
2022/04/18 02:28:33;;;;;;;3.08;1.83;;;;;;;9.50;52.19;101986.72;4974010;28;100730;-34
2022/04/18 02:30:59;;;;;;;7.05;1.98;;;;;;;9.47;52.04;101985.97;4975814;28;97881;-34
2022/04/18 02:33:24;;;;;;;4.22;2.00;;;;;;;9.45;52.00;101974.34;4976144;28;97405;-34
2022/04/18 02:35:50;;;;;;;3.28;1.75;;;;;;;9.46;51.91;101974.28;4975440;28;107379;-34
2022/04/18 02:38:16;;;;;;;2.30;1.67;;;;;;;9.42;51.62;101980.75;4975769;28;97921;-34
2022/04/18 02:40:42;;;;;;;2.40;1.23;;;;;;;9.41;52.04;101973.56;4975625;28;99300;-34
2022/04/18 02:43:07;;;;;;;2.95;1.58;;;;;;;9.41;52.19;101972.69;4976014;28;96553;-34
2022/04/18 02:45:33;;;;;;;3.40;1.70;;;;;;;9.38;52.63;101972.81;4976096;28;96599;-34
2022/04/18 02:47:59;;;;;;;4.05;1.80;;;;;;;9.33;52.61;101960.34;4975661;28;98004;-34
2022/04/18 02:50:25;;;;;;;3.15;1.27;;;;;;;9.38;52.18;101978.22;4973987;28;101006;-34
2022/04/18 02:52:51;;;;;;;3.33;1.67;;;;;;;9.38;52.46;101986.31;4973677;28;96762;-34
2022/04/18 02:55:16;;;;;;;3.17;1.67;;;;;;;9.32;53.24;101977.50;4975611;28;96500;-34
2022/04/18 02:57:42;;;;;;;1.77;1.35;;;;;;;9.30;52.61;101973.09;4975364;28;105264;-34
2022/04/18 03:00:09;;;;;;;2.78;1.33;;;;;;;9.25;52.36;101964.28;4975219;28;99237;-34
2022/04/18 03:02:35;;;;;;;2.55;1.35;;;;;;;9.29;52.16;101974.91;4973781;28;96622;-34
2022/04/18 03:05:00;;;;;;;2.95;1.38;;;;;;;9.24;51.91;101965.22;4974285;28;96851;-34
2022/04/18 03:07:26;;;;;;;2.65;1.27;;;;;;;9.23;52.56;101966.16;4974689;28;107397;-34
2022/04/18 03:09:51;;;;;;;3.50;1.63;;;;;;;9.13;52.33;101952.13;4972283;28;127925;-34
2022/04/18 03:12:16;;;;;;;1.77;1.02;;;;;;;9.21;53.24;101970.75;4974159;28;96557;-34
2022/04/18 03:14:43;;;;;;;1.73;1.08;;;;;;;9.15;52.30;101961.03;4973920;28;100153;-34
2022/04/18 03:17:09;;;;;;;1.92;1.20;;;;;;;9.17;52.33;101956.44;4972025;28;101016;-34
2022/04/18 03:19:35;;;;;;;1.85;1.30;;;;;;;9.18;52.89;101974.44;4973620;28;99208;-34
2022/04/18 03:22:00;;;;;;;1.92;1.02;;;;;;;9.03;52.75;101945.28;4972768;28;96752;-34
2022/04/18 03:24:25;;;;;;;1.05;0.77;;;;;;;9.07;53.28;101955.91;4974154;28;96787;-34
2022/04/18 03:26:51;;;;;;;1.88;1.08;;;;;;;9.05;52.46;101948.81;4973552;28;99596;-34
2022/04/18 03:29:17;;;;;;;2.05;1.25;;;;;;;9.07;52.97;101958.63;4973925;28;97771;-34
2022/04/18 03:31:42;;;;;;;1.08;0.80;;;;;;;8.97;53.17;101946.41;4972653;28;96550;-34
2022/04/18 03:34:08;;;;;;;1.23;0.90;;;;;;;9.01;52.77;101944.44;4974486;28;96900;-34
2022/04/18 03:42:01;;;;;;;1.08;0.85;;;;;;;9.00;53.16;101951.69;4972464;28;96457;-34
2022/04/18 03:44:27;;;;;;;1.85;0.80;;;;;;;8.93;53.00;101933.94;4973945;28;96717;-34
2022/04/18 03:46:52;;;;;;;2.30;1.38;;;;;;;8.98;52.53;101945.44;4973458;28;102128;-34
2022/04/18 03:49:19;;;;;;;1.10;0.80;;;;;;;8.98;52.37;101947.28;4973311;28;97763;-34
2022/04/18 03:51:44;;;;;;;1.73;0.90;;;;;;;8.97;52.03;101945.53;4972377;28;96634;-34
2022/04/18 03:54:09;;;;;;;4.80;1.10;;;;;;;8.85;51.63;101915.31;4973020;28;116590;-34
2022/04/18 03:56:35;;;;;;;1.20;0.85;;;;;;;8.90;52.39;101934.06;4973385;28;104195;-34
2022/04/18 03:59:00;;;;;;;3.40;1.33;;;;;;;8.87;52.44;101929.66;4973947;28;97802;-34
2022/04/18 04:01:25;;;;;;;1.48;0.90;;;;;;;8.85;51.35;101922.53;4973327;28;96908;-35
2022/04/18 04:03:51;;;;;;;0.47;0.43;;;;;;;8.86;51.89;101927.00;4973644;28;96783;-34
2022/04/18 04:06:16;;;;;;;3.85;1.27;;;;;;;8.85;51.26;101920.72;4972468;28;99480;-34
2022/04/18 04:08:42;;;;;;;1.63;1.10;;;;;;;8.89;51.89;101932.28;4972573;28;126454;-34
2022/04/18 04:11:07;;;;;;;1.65;0.80;;;;;;;8.85;52.06;101931.53;4969568;28;99510;-34
2022/04/18 04:13:33;;;;;;;1.42;0.90;;;;;;;8.79;53.04;101926.34;4974536;28;98258;-34
2022/04/18 04:15:58;;;;;;;2.10;0.82;;;;;;;8.78;53.39;101924.59;4977056;28;97846;-34
2022/04/18 04:18:23;;;;;;;4.57;1.10;;;;;;;8.85;52.78;101939.63;4978054;28;97556;-34
2022/04/18 04:20:48;;;;;;;1.15;0.70;;;;;;;8.88;52.59;101938.63;4978325;28;96679;-34
2022/04/18 04:23:14;;;;;;;1.58;1.10;;;;;;;8.87;52.65;101939.59;4978503;28;96942;-34
2022/04/18 04:25:39;;;;;;;6.28;0.85;;;;;;;8.80;52.90;101930.81;4978061;28;97882;-34
2022/04/18 04:28:05;;;;;;;1.75;0.70;;;;;;;8.84;52.86;101945.97;4976802;28;126442;-34
2022/04/18 04:30:30;;;;;;;2.75;0.93;;;;;;;8.86;53.35;101956.72;4977369;28;96597;-34
2022/04/18 04:32:55;;;;;;;2.05;0.80;;;;;;;8.84;53.52;101951.38;4976786;28;118556;-34
2022/04/18 04:35:20;;;;;;;1.50;1.17;;;;;;;8.74;53.48;101935.56;4976962;28;121694;-34
2022/04/18 04:37:46;;;;;;;1.67;1.10;;;;;;;8.81;53.06;101956.00;4976799;28;127497;-34
2022/04/18 04:40:11;;;;;;;1.08;0.75;;;;;;;8.73;52.83;101953.59;4977193;28;115410;-34
2022/04/18 04:42:38;;;;;;;1.25;0.88;;;;;;;8.77;52.91;101959.75;4976527;28;96852;-34
2022/04/18 04:45:03;;;;;;;1.88;1.15;;;;;;;8.79;53.55;101947.06;4976081;28;101439;-34
2022/04/18 04:47:29;;;;;;;1.50;0.43;;;;;;;8.71;51.56;101955.47;4977465;28;99564;-34
2022/04/18 04:49:54;;;;;;;1.55;1.00;;;;;;;8.79;50.48;101956.06;4976768;28;117554;-34
2022/04/18 04:52:20;;;;;;;0.85;0.50;;;;;;;8.84;50.32;101962.19;4977815;28;96751;-34
2022/04/18 04:54:45;;;;;;;1.00;0.70;;;;;;;8.81;50.28;101945.19;4976998;28;97956;-34
2022/04/18 04:57:10;;;;;;;1.20;0.77;;;;;;;8.83;49.95;101955.00;4976722;28;116163;-34
2022/04/18 04:59:35;;;;;;;1.88;0.60;;;;;;;8.80;49.76;101933.50;4977006;28;116790;-34
2022/04/18 05:02:01;;;;;;;0.43;0.43;;;;;;;8.89;49.46;101949.41;4976333;28;116247;-34
2022/04/18 05:04:27;;;;;;;4.78;0.80;;;;;;;8.78;49.13;101924.59;4977421;28;98582;-34
2022/04/18 05:06:52;;;;;;;1.95;1.15;;;;;;;8.90;49.65;101945.75;4977107;28;97850;-34
2022/04/18 05:09:18;;;;;;;1.23;0.70;;;;;;;8.91;49.49;101935.81;4977310;28;96651;-33
2022/04/18 05:11:44;;;;;;;1.38;1.00;;;;;;;8.99;49.65;101933.72;4976282;28;96861;-34
2022/04/18 05:14:10;;;;;;;1.58;0.77;;;;;;;8.90;49.53;101929.53;4977024;28;97975;-34
2022/04/18 05:16:35;;;;;;;1.40;0.77;;;;;;;8.93;49.47;101937.50;4976615;28;98452;-34
2022/04/18 05:19:00;;;;;;;1.50;0.95;;;;;;;8.92;49.32;101930.34;4976902;28;96460;-34
2022/04/18 05:21:26;;;;;;;1.52;0.85;;;;;;;8.97;49.54;101940.13;4976289;28;117485;-34
2022/04/18 05:23:51;;;;;;;1.80;1.15;;;;;;;8.91;49.50;101919.59;4976866;28;99341;-34
2022/04/18 05:26:16;;;;;;;1.52;0.70;;;;;;;8.99;49.95;101927.44;4976596;28;97743;-34
2022/04/18 05:28:42;;;;;;;1.35;0.90;;;;;;;9.10;49.80;101930.59;4977101;28;96563;-34
2022/04/18 05:31:08;;;;;;;0.90;0.60;;;;;;;9.08;50.29;101936.06;4977189;28;96757;-34
2022/04/18 05:33:33;;;;;;;1.25;0.80;;;;;;;9.08;49.63;101925.28;4976927;28;98032;-34
2022/04/18 05:35:58;;;;;;;2.78;1.17;;;;;;;9.17;49.70;101936.66;4977037;28;98907;-34
2022/04/18 05:38:24;;;;;;;3.03;1.50;;;;;;;9.19;49.21;101935.66;4977098;28;96493;-34
2022/04/18 05:40:49;;;;;;;1.50;1.00;;;;;;;9.21;48.95;101928.38;4976007;28;116864;-34
2022/04/18 05:43:17;;;;;;;0.77;0.63;;;;;;;9.31;49.30;101945.13;4976171;28;97393;-34
2022/04/18 05:45:43;;;;;;;2.53;0.80;;;;;;;9.36;48.91;101945.81;4976432;28;99098;-34
2022/04/18 05:48:08;;;;;;;1.33;0.80;;;;;;;9.37;49.04;101928.66;4976705;28;96438;-34
2022/04/18 05:50:34;;;;;;;1.42;0.90;;;;;;;9.51;48.92;101941.63;4975408;28;96917;-34
2022/04/18 05:53:00;;;;;;;0.73;0.60;;;;;;;9.54;48.78;101942.41;4975049;28;100997;-34
2022/04/18 05:55:25;;;;;;;1.58;0.88;;;;;;;9.61;48.62;101939.47;4976366;28;99108;-34
2022/04/18 05:57:52;;;;;;;1.63;1.15;;;;;;;9.65;48.06;101931.13;4976890;28;96665;-34
2022/04/18 06:00:18;;;;;;;0.93;0.68;;;;;;;9.75;48.28;101935.25;4976831;28;96706;-34
2022/04/18 06:02:44;;;;;;;2.17;1.08;;;;;;;9.95;48.13;101947.06;4974934;28;100860;-34
2022/04/18 06:05:09;;;;;;;1.88;0.88;;;;;;;10.00;47.78;101932.41;4976065;28;99074;-34
2022/04/18 06:07:35;;;;;;;1.10;0.80;;;;;;;10.08;47.83;101945.63;4975923;28;96859;-34
2022/04/18 06:10:03;;;;;;;1.48;0.60;;;;;;;10.15;47.75;101936.31;4975910;28;96856;-34
2022/04/18 06:12:28;;;;;;;0.75;0.60;;;;;;;10.21;47.86;101932.44;4974819;28;101336;-34
2022/04/18 06:14:54;;;;;;;2.03;0.98;;;;;;;10.40;47.85;101948.81;4974491;28;100736;-34
2022/04/18 06:17:19;;;;;;;1.70;1.10;;;;;;;10.53;47.67;101944.63;4976256;28;96611;-34
2022/04/18 06:19:44;;;;;;;0.95;0.68;;;;;;;10.63;47.41;101947.81;4976220;28;96858;-34
2022/04/18 06:22:10;;;;;;;1.77;1.02;;;;;;;10.62;47.31;101930.66;4974694;28;128997;-34
2022/04/18 06:24:35;;;;;;;1.50;0.90;;;;;;;10.76;46.97;101954.44;4976489;28;96774;-34
2022/04/18 06:27:00;;;;;;;1.15;0.65;;;;;;;10.82;47.02;101935.22;4975416;28;115383;-34
2022/04/18 06:29:26;;;;;;;1.50;0.93;;;;;;;10.88;46.44;101938.59;4976274;28;96930;-34
2022/04/18 06:31:53;;;;;;;1.23;0.98;;;;;;;10.95;46.01;101945.50;4975179;28;99467;-34
2022/04/18 06:34:19;;;;;;;1.42;0.98;;;;;;;10.99;45.93;101950.72;4975748;28;99267;-34
2022/04/18 06:36:44;;;;;;;1.98;0.85;;;;;;;11.10;45.00;101935.78;4975730;28;96494;-34
2022/04/18 06:39:10;;;;;;;2.28;1.40;;;;;;;11.26;45.21;101947.66;4974693;28;116160;-34
2022/04/18 06:41:35;;;;;;;0.88;0.68;;;;;;;11.41;45.18;101930.66;4975356;28;108696;-34
2022/04/18 06:44:04;;;;;;;1.85;1.23;;;;;;;11.56;44.27;101925.44;4975216;28;98917;-34
2022/04/18 06:46:29;;;;;;;1.10;1.00;;;;;;;11.68;42.44;101952.03;4975832;28;96684;-34
2022/04/18 06:48:54;;;;;;;1.58;1.00;;;;;;;11.78;43.50;101953.31;4976419;28;96777;-34
2022/04/18 06:51:20;;;;;;;1.08;0.70;;;;;;;11.87;41.85;101955.63;4975357;28;109869;-34
2022/04/18 06:53:45;;;;;;;2.20;0.90;;;;;;;12.03;42.90;101958.44;4975697;28;97721;-34
2022/04/18 06:58:54;;;;;;;1.27;0.85;;;;;;;12.48;42.63;101951.63;4975994;28;96629;-34
2022/04/18 07:01:19;;;;;;;1.70;1.00;;;;;;;12.75;40.67;101967.44;4974983;28;99354;-34
2022/04/18 07:03:45;;;;;;;1.23;0.77;;;;;;;12.86;41.14;101954.16;4975697;28;97330;-34
2022/04/18 07:06:10;;;;;;;1.42;0.80;;;;;;;13.08;40.42;101966.59;4974731;28;117174;-34
2022/04/18 07:08:35;;;;;;;1.98;1.05;;;;;;;13.14;40.84;101950.84;4975408;28;96874;-34
2022/04/18 07:11:00;;;;;;;1.60;1.00;;;;;;;13.35;38.93;101959.69;4974069;28;113477;-34
2022/04/18 07:13:26;;;;;;;1.85;1.20;;;;;;;13.48;38.83;101961.72;4974701;28;118409;-34
2022/04/18 07:15:52;;;;;;;1.17;1.00;;;;;;;13.58;38.50;101952.94;4974272;28;118662;-34
2022/04/18 07:18:17;;;;;;;1.70;0.90;;;;;;;13.60;39.38;101944.69;4974075;28;96822;-34
2022/04/18 07:20:43;;;;;;;2.65;1.10;;;;;;;13.81;39.20;101948.03;4973656;28;125330;-34
2022/04/18 07:23:08;;;;;;;2.25;1.00;;;;;;;13.93;38.74;101950.06;4975172;28;97759;-34
2022/04/18 07:25:33;;;;;;;1.02;0.60;;;;;;;14.06;37.69;101935.72;4975321;28;96492;-34
2022/04/18 07:27:59;;;;;;;1.25;0.93;;;;;;;14.23;36.61;101947.38;4975315;28;96806;-34
2022/04/18 07:30:29;;;;;;;1.60;1.10;;;;;;;14.31;37.69;101952.38;4974201;28;123850;-34
2022/04/18 07:32:55;;;;;;;1.33;0.95;;;;;;;14.32;37.05;101943.22;4973684;28;100915;-34
2022/04/18 07:35:21;;;;;;;1.23;0.80;;;;;;;14.21;35.22;101943.00;4975325;28;96529;-34
2022/04/18 07:40:31;;;;;;;4.28;1.10;;;;;;;14.44;35.19;101957.97;4975051;28;97084;-34
2022/04/18 07:42:56;;;;;;;2.70;0.98;;;;;;;14.50;35.75;101952.16;4973170;28;102313;-34
2022/04/18 07:45:22;;;;;;;1.13;0.85;;;;;;;14.54;34.42;101961.94;4973185;28;96659;-34
2022/04/18 07:47:52;;;;;;;1.52;0.90;;;;;;;14.68;35.62;101957.47;4974931;28;96857;-34
2022/04/18 07:50:18;;;;;;;1.08;0.80;;;;;;;14.73;35.58;101958.97;4972998;28;101161;-34
2022/04/18 07:52:44;;;;;;;1.42;0.80;;;;;;;14.74;36.39;101958.00;4956861;28;102573;-34
2022/04/18 07:55:09;;;;;;;1.40;0.85;;;;;;;14.78;36.26;101956.84;4975118;28;96453;-34
2022/04/18 07:57:37;;;;;;;0.88;0.75;;;;;;;14.85;35.36;101947.31;4957326;28;96854;-34
2022/04/18 08:00:06;;;;;;;1.40;0.70;;;;;;;14.94;35.70;101958.59;4974361;28;97892;-34
2022/04/18 08:02:33;;;;;;;1.70;1.10;;;;;;;14.80;35.92;101934.91;4973523;28;99476;-34
2022/04/18 08:04:58;;;;;;;1.88;1.20;;;;;;;14.81;35.57;101951.19;4973446;28;97214;-34
2022/04/18 08:07:25;;;;;;;0.95;0.63;;;;;;;14.76;36.17;101966.09;4956688;28;96962;-34
2022/04/18 08:09:52;;;;;;;1.33;0.95;;;;;;;14.69;35.69;101949.22;4955911;28;100851;-34
2022/04/18 08:12:17;;;;;;;1.58;0.88;;;;;;;14.79;35.85;101946.81;4972944;28;99897;-34
2022/04/18 08:14:42;;;;;;;1.52;1.00;;;;;;;14.86;34.70;101950.91;4974622;28;96521;-34
2022/04/18 08:17:08;;;;;;;1.05;0.70;;;;;;;14.97;35.55;101961.13;4973849;28;116961;-34
2022/04/18 08:19:43;;;;;;;1.75;0.95;;;;;;;15.00;33.27;101952.78;4974354;28;99338;-34
2022/04/18 08:22:09;;;;;;;1.38;1.00;;;;;;;15.15;34.66;101953.66;4973564;28;124258;-34
2022/04/18 08:24:34;;;;;;;2.08;1.10;;;;;;;15.29;33.43;101951.81;4973353;28;96662;-34
2022/04/18 08:27:00;;;;;;;1.40;1.02;;;;;;;15.38;34.88;101954.94;4975133;28;96809;-34
2022/04/18 08:29:25;;;;;;;2.35;1.10;;;;;;;15.38;34.88;101953.06;4974115;28;99347;-34
2022/04/18 08:31:50;;;;;;;1.88;1.13;;;;;;;15.55;33.41;101960.19;4974349;28;97810;-34
2022/04/18 08:34:17;;;;;;;1.58;1.10;;;;;;;15.62;35.32;101957.94;4973356;28;109424;-34
2022/04/18 08:36:43;;;;;;;2.70;1.17;;;;;;;15.62;34.72;101956.06;4974540;28;96800;-34
2022/04/18 08:39:08;;;;;;;4.00;1.52;;;;;;;15.58;34.44;101945.44;4973077;28;124494;-34
2022/04/18 08:41:46;;;;;;;3.70;0.90;;;;;;;15.90;34.73;101946.97;4974283;28;97881;-34
2022/04/18 08:44:13;;;;;;;1.60;1.20;;;;;;;16.25;34.85;101940.09;4974645;28;96526;-34
2022/04/18 08:46:39;;;;;;;2.45;1.30;;;;;;;16.65;34.95;101951.03;4974454;28;96881;-34
2022/04/18 08:54:32;;;;;;;3.33;1.42;;;;;;;17.10;33.62;101949.69;4973627;28;96525;-34
2022/04/18 08:56:58;;;;;;;3.10;1.63;;;;;;;17.12;33.43;101941.38;4974466;28;96773;-34
2022/04/18 08:59:23;;;;;;;2.00;1.13;;;;;;;17.37;33.07;101933.09;4973433;28;97592;-34
2022/04/18 09:01:50;;;;;;;2.22;1.15;;;;;;;17.37;31.63;101945.94;4975835;28;98099;-34
2022/04/18 09:04:18;;;;;;;1.08;0.98;;;;;;;17.29;31.51;101929.19;4976109;28;96602;-34
2022/04/18 09:06:43;;;;;;;1.88;1.10;;;;;;;17.42;31.00;101921.81;4975815;28;96914;-34
2022/04/18 09:09:08;;;;;;;2.28;1.23;;;;;;;17.58;32.96;101935.28;4976579;28;113766;-34
2022/04/18 09:11:40;;;;;;;1.25;0.93;;;;;;;17.84;32.63;101944.31;4976846;28;98241;-34
2022/04/18 09:14:06;;;;;;;3.10;0.88;;;;;;;17.90;31.72;101930.19;4977455;28;96647;-34
2022/04/18 09:16:32;;;;;;;2.90;1.10;;;;;;;17.77;31.09;101930.16;4976516;28;96890;-34
2022/04/18 09:19:11;;;;;;;2.83;1.35;;;;;;;18.32;32.52;101941.59;4975750;28;100749;-34
2022/04/18 09:21:54;;;;;;;1.30;1.02;;;;;;;18.77;31.62;101941.78;4975704;28;100778;-34
2022/04/18 09:24:32;;;;;;;2.05;1.35;;;;;;;18.55;30.68;101930.72;4976779;28;96478;-34
2022/04/18 09:27:05;;;;;;;1.85;1.25;;;;;;;18.59;31.32;101932.22;4977109;28;96753;-34
2022/04/18 09:29:31;;;;;;;2.08;1.08;;;;;;;18.83;29.77;101933.06;4975523;28;100948;-34
2022/04/18 09:31:58;;;;;;;2.83;1.50;;;;;;;18.93;30.94;101929.59;4976609;28;99874;-34
2022/04/18 09:34:24;;;;;;;1.90;1.15;;;;;;;19.00;29.64;101931.72;4976080;28;117292;-34
2022/04/18 09:37:09;;;;;;;3.10;1.33;;;;;;;18.86;29.37;101915.47;4976836;28;96908;-35
2022/04/18 09:39:36;;;;;;;2.13;1.35;;;;;;;18.57;29.93;101924.13;4983699;28;101122;-34
2022/04/18 09:42:14;;;;;;;1.95;1.10;;;;;;;18.65;31.02;101926.25;4985642;28;96925;-34
2022/04/18 09:44:39;;;;;;;1.90;1.27;;;;;;;18.50;30.61;101914.63;4989453;28;96719;-34
2022/04/18 09:47:05;;;;;;;3.53;1.42;;;;;;;18.70;31.93;101931.38;4977454;28;96801;-34
2022/04/18 09:49:38;;;;;;;1.77;1.05;;;;;;;19.02;31.17;101923.34;4975987;28;98011;-34
2022/04/18 09:52:10;;;;;;;2.60;1.40;;;;;;;18.92;29.81;101920.47;4974877;28;100774;-34
2022/04/18 09:54:35;;;;;;;2.30;1.55;;;;;;;18.98;31.04;101909.00;4976705;28;96624;-34
2022/04/18 09:57:08;;;;;;;2.50;1.33;;;;;;;19.32;31.71;101909.00;4974978;28;96767;-34
2022/04/18 09:59:33;;;;;;;2.53;1.45;;;;;;;19.09;30.44;101919.09;4974923;28;100959;-34
2022/04/18 10:02:12;;;;;;;1.60;1.17;;;;;;;19.18;29.33;101901.03;4976084;28;97777;-34
2022/04/18 10:04:38;;;;;;;1.55;0.93;;;;;;;19.17;27.96;101913.03;4975310;28;96572;-34
2022/04/18 10:07:04;;;;;;;1.98;1.27;;;;;;;19.03;29.01;101906.75;4976873;28;96767;-34
2022/04/18 10:09:29;;;;;;;2.22;1.48;;;;;;;19.33;29.57;101907.13;4975734;28;97598;-34
2022/04/18 10:11:56;;;;;;;1.02;0.95;;;;;;;19.55;29.98;101898.00;4974317;28;126903;-34
2022/04/18 10:14:21;;;;;;;1.80;1.25;;;;;;;19.96;29.53;101901.94;4974348;28;96581;-34
2022/04/18 10:16:47;;;;;;;4.03;1.25;;;;;;;20.01;27.34;101899.69;4976351;28;96872;-34
2022/04/18 10:20:06;;;;;;;2.33;1.45;;;;;;;20.29;27.40;101906.44;4976098;28;97472;-34
2022/04/18 10:23:10;;;;;;;1.65;1.05;;;;;;;20.44;27.80;101896.00;4974429;28;98921;-34
2022/04/18 10:26:03;;;;;;;1.35;0.88;;;;;;;20.71;29.32;101901.88;4976404;28;96549;-34
2022/04/18 10:28:35;;;;;;;1.60;0.85;;;;;;;21.07;26.35;101899.63;4974924;28;96829;-34
2022/04/18 10:31:01;;;;;;;;;;;;;;;20.82;26.51;101905.56;4974755;28;100982;-35
2022/04/18 10:33:28;;;;;;;2.10;1.20;;;;;;;20.84;26.70;101890.66;4976369;28;97796;-34
2022/04/18 10:36:01;;;;;;;2.15;1.20;;;;;;;21.11;28.49;101903.81;4974682;28;96599;-34
2022/04/18 10:38:27;;;;;;;1.60;1.20;;;;;;;21.48;28.81;101889.53;4974909;28;96758;-34
2022/04/18 10:44:09;;;;;;;2.08;1.20;;;;;;;21.72;23.73;101902.06;4975608;28;96950;-34
2022/04/18 10:46:55;;;;;;;2.63;1.55;;;;;;;22.06;27.21;101895.13;4975344;28;96838;-34
2022/04/18 10:49:23;;;;;;;1.05;0.90;;;;;;;21.98;25.77;101881.19;4976063;28;97135;-34
2022/04/18 10:51:51;;;;;;;2.92;1.45;;;;;;;22.01;27.26;101882.81;4975508;28;97980;-34
2022/04/18 10:54:22;;;;;;;2.97;1.40;;;;;;;22.40;26.01;101877.31;4974120;28;101042;-34
2022/04/18 10:57:01;;;;;;;1.65;1.05;;;;;;;22.60;26.23;101869.88;4974480;28;96628;-34
2022/04/18 10:59:41;;;;;;;2.08;1.05;;;;;;;22.78;26.44;101875.50;4976015;28;96937;-34
2022/04/18 11:02:07;;;;;;;2.28;1.27;;;;;;;22.74;26.49;101866.66;4975490;28;97928;-34
2022/04/18 11:04:47;;;;;;;1.98;1.15;;;;;;;22.41;24.76;101870.78;4973757;28;100775;-34
2022/04/18 11:07:13;;;;;;;2.28;1.13;;;;;;;22.54;27.13;101881.50;4973673;28;96599;-34
2022/04/18 11:09:45;;;;;;;3.55;1.70;;;;;;;22.81;26.73;101877.97;4975031;28;96894;-35
2022/04/18 11:12:15;;;;;;;;;;;;;;;22.66;24.34;101874.78;4974326;28;101335;-34
2022/04/18 11:15:07;;;;;;;1.80;1.23;;;;;;;22.53;25.83;101885.31;4973834;28;100721;-34
2022/04/18 11:17:40;;;;;;;1.95;1.30;;;;;;;22.80;25.50;101862.41;4974939;28;96881;-34
2022/04/18 11:20:28;;;;;;;2.55;1.40;;;;;;;23.02;25.88;101869.50;4974110;28;96847;-34
2022/04/18 11:23:17;;;;;;;2.15;1.23;;;;;;;23.41;26.06;101861.91;4973540;28;100907;-34
2022/04/18 11:26:08;;;;;;;2.08;1.42;;;;;;;23.33;24.92;101870.09;4973991;28;100903;-34
2022/04/18 11:28:39;;;;;;;2.72;1.38;;;;;;;23.18;25.41;101861.44;4974988;28;96875;-34
2022/04/18 11:31:18;;;;;;;2.58;1.60;;;;;;;23.31;23.59;101852.78;4973982;28;96762;-34
2022/04/18 11:33:44;;;;;;;2.08;1.42;;;;;;;23.07;25.41;101845.03;4974190;28;99548;-34
2022/04/18 11:36:13;;;;;;;2.42;1.40;;;;;;;23.22;25.13;101838.00;4974970;28;97741;-34
2022/04/18 11:38:39;;;;;;;3.10;1.60;;;;;;;23.12;25.46;101853.75;4973784;28;96656;-34
2022/04/18 11:41:11;;;;;;;2.38;1.55;;;;;;;22.79;23.67;101841.34;4975077;28;96819;-34
2022/04/18 11:43:37;;;;;;;2.15;1.50;;;;;;;22.56;24.00;101851.84;4957132;28;101416;-34
2022/04/18 11:46:07;;;;;;;3.40;1.40;;;;;;;22.79;25.32;101852.41;4974862;28;97261;-35
2022/04/18 11:48:34;;;;;;;2.93;1.40;;;;;;;23.22;24.90;101849.06;4975050;28;96623;-34
2022/04/18 11:50:59;;;;;;;2.53;1.77;;;;;;;23.44;24.00;101841.38;4973850;28;96620;-34
2022/04/18 11:53:33;;;;;;;4.13;1.27;;;;;;;23.28;22.25;101850.31;4973935;28;120280;-34